Ana Sayfa
METAR-TAF:

METAR-TAF

Havaalanları :

Zvartnots Uluslararası Havalimanı

Erivan, Ermenistan

Enlem: 40-08-50N, Boylam: 044-23-45E, yükseklik: 865 m

Güncel hava durumu gözlemi

Rapor saat 21:05 UTC de 35 dakika önce yapıldı.
Rüzgar kuzeydoğudan 2 kt
Sıcaklık 1°C
Nem 80%
Basınç 1025 hPa
Görüş mesafesi 10 km veya daha fazla

METAR: UDYZ 172105Z 04002KT 9999 NSC 01/M02 Q1025 R09/000070 NOSIG

Saat: 01:40 (21:40 UTC)

Tahmin

Rapor saat 17:07 UTC de 4 saat ve 33 dakika önce yapıldı.
Ayın 17'si saat 18 UTC'den ayın 18'si saat 18 UTC'ye kadar geçerli Tahmin
Rüzgar doğu/kuzeydoğudan 6 kt
Görüş mesafesi: 6000 m
Geçici
ayın 18'si saat 00 UTC'den ayın 18'si saat 06 UTC'ye kadar
Görüş mesafesi: 2300 m
Pus
Geçici
ayın 18'si saat 09 UTC'den ayın 18'si saat 15 UTC'ye kadar
Rüzgar değişken yönden 16 kt
4000 ft yükseklikte az bulutlu, Kümülonimbus.

TAF: UDYZ 171707Z 1718/1818 07006KT 6000 NSC TEMPO 1800/1806 2300 BR TEMPO 1809/1815 VRB16KT FEW040CB

4.000'den fazla havaalanı için hava durumu gözlemleri ve tahminleri (METAR ve TAF raporları).

Kullanılabilir istasyonlar harita üzerinde sarı ve kırmızı noktalarla gösterilir.

İstasyonun adını görmek için fareyi noktanın üzerinde gezdirin.

Sonrasında hava gözlem ve tahminlerini görmek için tıklayın.

Haritayı değiştirmek için: yaklaştırmak için siyah artı işaretli yeşil düğmeye ve uzaklaştırmak için de eksi işaretli düğmeye hızla tıklayın; bitişik haritalar için yeşil okları kullanın.


METAR-TAF: